Logo
Chronus DKP
CHRONUS YEAH YEAH YEAH

News | Standings | Raids | Events | Item Values | Item History | Summary | Stats
Register | Login

Recorded Raid History for Serpentshrine Cavern
Added By: Sylexia Updated By: N/A
  Date Attendees Drops Note Value
View 10/22/08 20 6 Vashj / Karathress 65.00
View 10/20/08 21 3 Vashj (First Kill!!!!!) 80.00
View 10/08/08 20 1 Lurker 20.00
View 09/25/08 20 1   60.00
View 09/16/08 17 4 Leo / Lurker 40.00
View 09/11/08 19 6 Hydross / Lurker / Tidewalker / Karathress / Leo 105.00
View 09/04/08 16 5 Leo / Karathress 45.00
View 09/02/08 13 3 Hydross / Lurker 35.00
View 08/26/08 18 5 Lurker / Leo / Karathress 65.00
View 08/06/08 15 2 Leo 20.00
View 07/29/08 16 4 Leo / Karathress 45.00
View 07/24/08 17 3   25.00
View 07/23/08 16 4 Leo / Karathress 45.00
View 07/22/08 11 0 Not enough to run, credit for those who showed up. 15.00
View 07/21/08 12 3 Hydross 15.00
View 07/17/08 17 1   40.00
View 07/15/08 14 4 Lurker / Tidewalker / Karathress / Leo 90.00
View 07/09/08 15 4 Lurker / Tidewalker / Karathress 70.00
View 07/08/08 14 2 Hydross 15.00
View 07/02/08 17 2 Leo 20.00
View 07/01/08 15 10 Hydross / Lurker / Tidewalker / Karathress 85.00
View 06/30/08 15 1 Leo 20.00
View 06/26/08 14 4 Hydross / Karathress 40.00
View 06/25/08 16 5 Lurker / Tidewalker 45.00
View 06/23/08 14 2 Leo 20.00
View 06/18/08 15 5 Lurker / Tidewalker / Karathress 70.00
View 06/17/08 15 1 Hydross 15.00
View 06/11/08 14 5 Leo, Tidewalker, Karathress 70.00
View 06/10/08 14 2 Hydross, Lurker 35.00
View 06/09/08 16 2 Leo 20.00
View 06/05/08 19 9 Hydross / Lurker / Tidewalker / Karathress 85.00
View 05/29/08 15 3 Karathress (First Kill Bonus!) 50.00
View 05/28/08 14 4 Hydross / Lurker / Tidewalker / Leo 80.00
View 05/26/08 13 2 Leo (First Kill Bonus!) 40.00
View 05/22/08 16 0 Leotheras (Attempts) 10.00
View 05/21/08 14 3 Hydross 15.00
View 05/20/08 16 3 Lurker / Tidewalker 45.00
View 05/14/08 15 2 Lurker / Tidewalker 45.00
View 05/13/08 14 1 Hydross / Lurker (Attempts) 25.00
View 05/07/08 14 2 Hydross 15.00
View 05/06/08 15 4 Lurker / Tidewalker - (First Team RA Raid W/ +5 Increased Boss Values) 45.00
View 04/29/08 13 2 Lurker, Tidewalker 35.00
View 04/28/08 14 0 Attempts on Hydross & Tidewalker 15.00
View 04/22/08 11 1 The Lurker Below / Hydross (Attempts) / Tidewalker (Attempts) 30.00
View 04/21/08 10 0 Trash Mob (Leo Attempts) 10.00
View 04/16/08 9 1   45.00
View 04/14/08 10 1 Hydross The Unstable / Tidewalker (Attempts) 20.00
View 04/10/08 8 2 Lurker / Tidewalker (Attempts) 25.00
View 04/07/08 9 0 Hydross (First kill bonus) / Leo (Attempts) 30.00
View 04/03/08 16 6   35.00
View 04/01/08 10 1 Lurker / Tidewalker (First kill bonus) 55.00
View 03/31/08 10 0 Morogrim Tidewalker (Attempts) 10.00
View 03/27/08 11 2 The Lurker Below / Morogrim Tidewalker (Attempts) 25.00
View 03/26/08 8 0 People need to show the fuck up 15.00
View 03/25/08 19 5   35.00
View 03/24/08 11 2 Morogrim Tidewalker (Attempts) 10.00
View 03/20/08 8 0 Morogrim Tidewalker (Attempts) 10.00
View 03/19/08 5 0 Morogrim Tidewalker (Attempts) 15.00
View 03/18/08 8 1 The Lurker Below 15.00
View 03/18/08 8 0 Morogrim Tidwalker (Attempts) 10.00
View 03/18/08 19 3   115.00
View 03/12/08 6 2 Adjusted DKP- boss kill with less than 25 players! GG! 25.00
View 03/12/08 15 8   90.00
View 03/11/08 18 1   25.00
View 03/04/08 16 15   115.00
View 03/03/08 11 1   10.00
View 02/28/08 9 1 The Lurker Below (Team RA - First Kill Bonus) 30.00
View 02/21/08 6 0   10.00
View 02/20/08 19 8   85.00
View 02/19/08 17 3   30.00
View 02/18/08 17 9   115.00
View 02/07/08 8 1 Hydross / Lurker attempts 15.00
View 02/07/08 18 2   55.00
View 02/05/08 19 5   60.00
View 02/04/08 9 0 Hydross Attempts 5.00
View 01/30/08 20 5   45.00
View 01/29/08 18 5   70.00
View 01/28/08 19 5 VASHJ DOWN! CHRONUS YEAH! YEAH! YEAH! 70.00
View 01/23/08 18 4   40.00
View 01/22/08 17 3   40.00
View 01/21/08 17 4   45.00
View 01/17/08 18 2   25.00
View 01/14/08 19 0   20.00
View 01/10/08 17 1   40.00
View 01/09/08 17 9   60.00
View 01/08/08 8 1   5.00
View 01/03/08 19 2   25.00
View 12/20/07 11 1   30.00
View 12/12/07 16 8   95.00
View 12/10/07 18 0   0.00
View 12/06/07 15 0   30.00
View 12/05/07 15 6   70.00
View 12/04/07 16 4   40.00
View 11/29/07 16 3   30.00
View 11/28/07 16 5   80.00
View 11/26/07 14 3   50.00
View 11/20/07 16 2   60.00
View 11/19/07 16 0   30.00
View 11/15/07 14 1 Yay for dead vent server 30.00
View 11/14/07 15 2   55.00
View 11/13/07 17 1   40.00
View 11/12/07 18 5   60.00
View 11/07/07 18 4   65.00
View 11/05/07 20 2   15.00
View 10/31/07 17 0 No class balance 15.00
View 10/30/07 16 3   40.00
View 10/29/07 19 0   30.00
View 10/24/07 21 7   70.00
View 10/23/07 19 3   40.00
View 10/18/07 16 2   35.00
View 10/17/07 17 8   75.00
View 10/15/07 19 5   30.00
View 10/11/07 20 7   55.00
View 10/10/07 20 6   40.00
View 10/08/07 17 2 LEO DOWN! 45.00
View 10/04/07 19 5   55.00
View 10/03/07 18 4   45.00
View 10/01/07 19 2 Karathress Down! 75.00
View 09/26/07 17 6 Hydross down! 50.00
View 09/24/07 17 0   20.00
View 09/20/07 15 2   30.00
View 09/17/07 17 0   25.00
View 09/13/07 20 5 Tidewalker Down! 62.00
View 09/12/07 19 2   40.00
View 09/10/07 16 0   25.00
View 09/04/07 19 0 Yay for craptastic loot dropping night?!? 40.00
View 09/03/07 17 2 Lurker Down! 55.00
View 08/30/07 18 0   25.00
View 08/23/07 16 1   25.00
 
Average: 15 2 Total Earned: 5332.00
... found 129 raid(s)

Items
  Date Buyer Name Spent
View 10/22/08 Livvia Vestments of the Sea-Witch 320.00
View 10/22/08 Mimiku Leggings of the Vanquished Champion 38.00
View 10/22/08 Mimiku Krakken-Heart Breastplate 280.00
View 10/22/08 Rihkaten Helm of the Vanquished Champion 300.00
View 10/22/08 Lineer Helm of the Vanquished Hero 300.00
View 10/22/08 Cheetahkayak Helm of the Vanquished Champion 300.00
View 10/20/08 Rayna Helm of the Vanquished Champion 195.00
View 10/20/08 Livvia Helm of the Vanquished Hero 300.00
View 10/20/08 Lineer Cobra-Lash Boots 260.00
View 10/08/08 Thymble Serpentshrine Shuriken 25.00
View 09/25/08 Firerelic Vestments of the Sea-Witch 320.00
View 09/16/08 Teggo Serpentshrine Shuriken 25.00
View 09/16/08 Teggo Gloves of the Vanquished Defender 35.00
View 09/16/08 Missnovember Gloves of the Vanquished Defender 260.00
View 09/16/08 Gutterpin Pattern: Belt of Natural Power 0.00
View 09/11/08 Aspir Ring of Lethality 275.00
View 09/11/08 Alandrexia Ancestral Ring of Conquest 35.00
View 09/11/08 Kyndeyrn Velvet Boots of the Guardian 35.00
View 09/11/08 Teggo Mallet of the Tides 260.00
View 09/11/08 Aspir Talon of Azshara 350.00
View 09/11/08 Missnovember Leggings of the Vanquished Defender 280.00
View 09/04/08 Thymble Leggings of the Vanquished Defender 38.00
View 09/04/08 Khukie Leggings of the Vanquished Defender 38.00
View 09/04/08 Cephalia Totem of the Maelstrom 210.00
View 09/04/08 Kyndeyrn Leggings of the Vanquished Defender 38.00
View 09/04/08 Kyndeyrn Gloves of the Vanquished Defender 35.00
View 09/02/08 Omegaflame Pattern: Monsoon Belt 0.00
View 09/02/08 Merede Boots of the Shifting Nightmare 220.00
View 09/02/08 Merede Earring of Soulful Meditation 30.00
View 08/26/08 Khukie Leggings of the Vanquished Defender 280.00
View 08/26/08 Jereld Sextant of Unstable Currents 310.00
View 08/26/08 Merede Gloves of the Vanquished Defender 260.00
View 08/26/08 Aspir Gloves of the Vanquished Champion 260.00
View 08/26/08 Amerill Choker of Animalistic Fury 32.00
View 08/06/08 Teggo Girdle of the Invulnerable 250.00
View 08/06/08 Rayna Gloves of the Vanquished Champion 35.00
View 07/29/08 Kyndeyrn Leggings of the Vanquished Defender 38.00
View 07/29/08 Mimiku Leggings of the Vanquished Champion 280.00
View 07/29/08 Amerill Gloves of the Vanquished Defender 35.00
View 07/29/08 Kyndeyrn Gloves of the Vanquished Defender 35.00
View 07/24/08 Amuna Soul-Strider Boots 32.00
View 07/24/08 Kymiran Leggings of the Vanquished Defender 38.00
View 07/24/08 Firerelic Leggings of the Vanquished Hero 38.00
View 07/23/08 Asgar Leggings of the Vanquished Hero 38.00
View 07/23/08 Kynthios Leggings of the Vanquished Defender 182.00
View 07/23/08 Murasaki Pattern: Belt of the Long Road 0.00
View 07/23/08 Kynthios Gloves of the Vanquished Defender 169.00
View 07/21/08 Kynthios Living Root of the Wildheart 150.00
View 07/21/08 Teggo Pauldrons of the Wardancer 30.00
View 07/21/08 Mimiku Scarab of Displacement 32.00
View 07/17/08 Firerelic Helm of the Vanquished Hero 38.00
View 07/15/08 Gutterpin Leggings of the Vanquished Defender 280.00
View 07/15/08 Gutterpin Gloves of the Vanquished Defender 260.00
View 07/15/08 Rayna Gloves of the Vanquished Champion 169.00
View 07/15/08 Kyndeyrn Bloodsea Brigand's Vest 40.00
View 07/09/08 Nefeteri Leggings of the Vanquished Hero 280.00
View 07/09/08 Thymble Ring of Sundered Souls 300.00
View 07/09/08 Amerill Glowing Breastplate of Truth 27.00
View 07/09/08 Teggo Plans: Fel Hardened Maul 0.00
View 07/08/08 Amerill Pauldrons of the Wardancer 30.00
View 07/08/08 Rihkaten Brighthelm of Justice 210.00
View 07/02/08 Stonewall Gloves of the Vanquished Champion 260.00
View 07/02/08 Mimiku Gloves of the Vanquished Champion 260.00
View 07/01/08 Jereld Fathomstone 235.00
View 07/01/08 Rihkaten Robe of Hateful Echoes 35.00
View 07/01/08 Rayna Leggings of the Vanquished Champion 182.00
View 07/01/08 Rayna Girdle of the Tidal Call 163.00
View 07/01/08 Amerill Scarab of Displacement 240.00
View 07/01/08 Kyndeyrn The Seal of Danzalar 25.00
View 07/01/08 Cheetahkayak Talon of Azshara 350.00
View 07/01/08 Murasaki Leggings of the Vanquished Hero 38.00
View 07/01/08 Mimiku Spyglass of the Hidden Fleet 28.00
View 07/01/08 Mimiku World Breaker 325.00
View 06/30/08 Murasaki Gloves of the Vanquished Hero 35.00
View 06/26/08 Amerill Leggings of the Vanquished Defender 38.00
View 06/26/08 Kyndeyrn Shoulderpads of the Stranger 33.00
View 06/26/08 Alandrexia Fathom-Brooch of the Tidewalker 260.00
View 06/26/08 Mimiku Blackfathom Warbands 33.00
View 06/25/08 Mimiku Warboots of Obliteration 230.00
View 06/25/08 Murasaki Cord of Screaming Terrors 240.00
View 06/25/08 Murasaki Serpent-Coil Braid 250.00
View 06/25/08 Alandrexia Pendant of the Lost Ages 32.00
View 06/25/08 Rayna Ancestral Ring of Conquest 35.00
View 06/23/08 Thymble Girdle of the Invulnerable 250.00
View 06/23/08 Cheetahkayak Gloves of the Vanquished Champion 260.00
View 06/18/08 Teggo Ring of Sundered Souls 300.00
View 06/18/08 Teggo Plans: Belt of the Guardian 0.00
View 06/18/08 Thymble Mallet of the Tides 260.00
View 06/18/08 Amerill Pendant of the Perilous 32.00
View 06/18/08 Jereld Leggings of the Vanquished Hero 280.00
View 06/17/08 Livvia Robe of Hateful Echoes 260.00
View 06/11/08 Kyndeyrn Wildfury Greatstaff 38.00
View 06/11/08 Murasaki Gloves of the Vanquished Hero 260.00
View 06/11/08 Nefeteri Serpent-Coil Braid 250.00
View 06/11/08 Rayna Sextant of Unstable Currents 43.00
View 06/11/08 Livvia Gloves of the Vanquished Hero 260.00
View 06/10/08 Livvia Cord of Screaming Terrors 240.00
View 06/10/08 Nefeteri Robe of Hateful Echoes 260.00
View 06/09/08 Nefeteri Gloves of the Vanquished Hero 260.00
View 06/09/08 Rayna Gloves of the Vanquished Champion 260.00
View 06/05/08 Asgar Leggings of the Vanquished Hero 280.00
View 06/05/08 Thymble Talon of Azshara 50.00
View 06/05/08 Thymble Pauldrons of the Wardancer 30.00
View 06/05/08 Livvia Leggings of the Vanquished Hero 280.00
View 06/05/08 Murasaki Leggings of the Vanquished Hero 280.00
View 06/05/08 Kyndeyrn Living Root of the Wildheart 230.00
View 06/05/08 Mimiku Razor-Scale Battlecloak 260.00
View 06/05/08 Mimiku Boots of Courage Unending 35.00
View 06/05/08 Teggo Scarab of Displacement 240.00
View 05/29/08 Cheetahkayak Pattern: Boots of the Crimson Hawk 0.00
View 05/29/08 Rayna Leggings of the Vanquished Champion 280.00
View 05/29/08 Kynthios Frayed Tether of the Drowned 156.00
View 05/28/08 Amerill Gloves of the Vanquished Defender 260.00
View 05/28/08 Mimiku Bracers of Eradication 260.00
View 05/28/08 Mimiku Pauldrons of the Wardancer 230.00
View 05/28/08 Mimiku Ring of Lethality 275.00
View 05/26/08 Kyndeyrn Orca-Hide Boots 260.00
View 05/26/08 Asgar Gloves of the Vanquished Hero 260.00
View 05/21/08 Cheetahkayak Ring of Lethality 275.00
View 05/21/08 Amerill Serpentshrine Shuriken 25.00
View 05/21/08 Thymble Fathomstone 235.00
View 05/20/08 Nefeteri Cord of Screaming Terrors 240.00
View 05/20/08 Mimiku Ancestral Ring of Conquest 260.00
View 05/20/08 Amerill Ring of Sundered Souls 300.00
View 05/14/08 Jereld Pendant of the Lost Ages 32.00
View 05/14/08 Mimiku Libram of Absolute Truth 27.00
View 05/13/08 Gutterpin Wildfury Greatstaff 275.00
View 05/07/08 Nefeteri Fathomstone 235.00
View 05/07/08 Rayna Blackfathom Warbands 245.00
View 05/06/08 Amerill Spyglass of the Hidden Fleet 28.00
View 05/06/08 Orohime Talon of Azshara 350.00
View 05/06/08 Rayna Pattern: Hurricane Boots 0.00
View 05/06/08 Cerrelle Luminescent Rod of the Naaru 29.00
View 04/29/08 Jereld Serpent-Coil Braid 250.00
View 04/29/08 Alandrexia Tempest-Strider Boots 250.00
View 04/22/08 Gutterpin Velvet Boots of the Guardian 260.00
View 04/16/08 Asgar Ranger-General's Chestguard 290.00
View 04/14/08 Mimiku Fathomstone 235.00
View 04/10/08 Rayna Pattern: Belt of Natural Power 0.00
View 04/10/08 Jereld Velvet Boots of the Guardian 260.00
View 04/03/08 Fireheals Vestments of the Sea-Witch 320.00
View 04/03/08 Sylexia Nether Vortex 0.00
View 04/03/08 Kryllik Helm of the Vanquished Hero 38.00
View 04/03/08 Sylexia Nether Vortex 0.00
View 04/03/08 Phoenixbow Nether Vortex 0.00
View 04/03/08 Phoenixbow Nether Vortex 0.00
View 04/01/08 Orohime Boots of Effortless Striking 210.00
View 03/27/08 Rayna The Seal of Danzalar 25.00
View 03/27/08 Marteau Ancestral Ring of Conquest 35.00
View 03/25/08 Gutterpin Nether Vortex 0.00
View 03/25/08 Gutterpin Nether Vortex 0.00
View 03/25/08 Sleyn Helm of the Vanquished Hero 300.00
View 03/25/08 Laylu Helm of the Vanquished Champion 300.00
View 03/25/08 Vanadis Helm of the Vanquished Defender 300.00
View 03/24/08 Gutterpin Pattern: Boots of Utter Darkness 0.00
View 03/24/08 Gutterpin Pattern: Boots of Natural Grace 0.00
View 03/18/08 Amerill Bracers of Eradication 35.00
View 03/18/08 Diam Leggings of the Vanquished Hero 280.00
View 03/18/08 Gadir Serpent Spine Longbow 350.00
View 03/18/08 Kymiran Helm of the Vanquished Hero 300.00
View 03/12/08 Gutterpin Grove-Bands of Remulos 30.00
View 03/12/08 Mimiku The Seal of Danzalar 25.00
View 03/12/08 Diam Gloves of the Vanquished Hero 260.00
View 03/12/08 Kryllik Fang of the Leviathan 225.00
View 03/12/08 Ihasdps Gloves of the Vanquished Defender 260.00
View 03/12/08 Sylent Leggings of the Vanquished Champion 280.00
View 03/12/08 Ihasdps Nether Vortex 0.00
View 03/12/08 Ihasdps Nether Vortex 0.00
View 03/12/08 Orbital Ring of Endless Coils 300.00
View 03/12/08 Diam Helm of the Vanquished Hero 300.00
View 03/11/08 Temujin Plans: Belt of the Guardian 0.00
View 03/04/08 Marteau Libram of Absolute Truth 210.00
View 03/04/08 Kymiran Nether Vortex 0.00
View 03/04/08 Kymiran Nether Vortex 0.00
View 03/04/08 Euric Girdle of the Invulnerable 250.00
View 03/04/08 Kymiran Gloves of the Vanquished Hero 260.00
View 03/04/08 Kryllik Pattern: Boots of Blasting 0.00
View 03/04/08 Shiva Leggings of the Vanquished Champion 38.00
View 03/04/08 Areyn Pendant of the Lost Ages 32.00
View 03/04/08 Kymiran Serpent-Coil Braid 250.00
View 03/04/08 Marteau Krakken-Heart Breastplate 50.00
View 03/04/08 Shiva Lightfathom Scepter 350.00
View 03/04/08 Euric Helm of the Vanquished Champion 300.00
View 03/04/08 Euric Nether Vortex 0.00
View 03/04/08 Euric Nether Vortex 0.00
View 03/04/08 Kryllik Fathomstone 235.00
View 03/03/08 Marteau Boots of Courage Unending 260.00
View 02/28/08 Cerrelle The Seal of Danzalar 25.00
View 02/20/08 Sylent Nether Vortex 0.00
View 02/20/08 Sylent Nether Vortex 0.00
View 02/20/08 Repentant Boots of the Shifting Nightmare 220.00
View 02/20/08 Kryllik Leggings of the Vanquished Hero 280.00
View 02/20/08 Dranalin Cobra-Lash Boots 260.00
View 02/20/08 Repentant Helm of the Vanquished Hero 300.00
View 02/20/08 Phoenixbow Helm of the Vanquished Champion 300.00
View 02/20/08 Sleyn Ring of Endless Coils 300.00
View 02/19/08 Areyn Libram of Absolute Truth 210.00
View 02/19/08 Thymble Gloves of the Vanquished Hero 260.00
View 02/19/08 Marteau Gloves of the Vanquished Champion 35.00
View 02/18/08 Ihasdps Tsunami Talisman 310.00
View 02/18/08 Fireheals Gloves of the Vanquished Defender 35.00
View 02/18/08 Gadir Mantle of the Tireless Tracker 250.00
View 02/18/08 Dranalin Leggings of the Vanquished Hero 280.00
View 02/18/08 Kryllik Robe of Hateful Echoes 260.00
View 02/18/08 Euric Nether Vortex 0.00
View 02/18/08 Euric Nether Vortex 0.00
View 02/18/08 Ihasdps Helm of the Vanquished Champion 300.00
View 02/18/08 Sylent Krakken-Heart Breastplate 50.00
View 02/07/08 Kynthios Wildfury Greatstaff 179.00
View 02/07/08 Yoh Coral Band of the Revived 300.00
View 02/07/08 Thymble Serpent-Coil Braid 250.00
View 02/05/08 Kryllik Boots of the Shifting Nightmare 220.00
View 02/05/08 Marteau Pauldrons of the Wardancer 30.00
View 02/05/08 Fireheals Pattern: Belt of the Long Road 0.00
View 02/05/08 Blackfish Gloves of the Vanquished Hero 260.00
View 02/05/08 Blackfish Pattern: Boots of Blasting 0.00
View 01/30/08 Kryllik Nether Vortex 0.00
View 01/30/08 Tinkeron Helm of the Vanquished Champion 300.00
View 01/30/08 Sylexia Helm of the Vanquished Defender 300.00
View 01/30/08 Sylexia Coral Band of the Revived 300.00
View 01/30/08 Euric Pauldrons of the Wardancer 30.00
View 01/29/08 Blackfish Fang of the Leviathan 225.00
View 01/29/08 Euric Gloves of the Vanquished Champion 35.00
View 01/29/08 Tinkeron Sextant of Unstable Currents 310.00
View 01/29/08 Blackfish Leggings of the Vanquished Hero 280.00
View 01/29/08 Tinkeron Pendant of the Lost Ages 32.00
View 01/28/08 Gadir Helm of the Vanquished Hero 300.00
View 01/28/08 Areyn Helm of the Vanquished Champion 300.00
View 01/28/08 Phoenixbow Cobra-Lash Boots 260.00
View 01/28/08 Shiva Nether Vortex 0.00
View 01/28/08 Shiva Nether Vortex 0.00
View 01/23/08 Fireheals Luminescent Rod of the Naaru 29.00
View 01/23/08 Ihasdps Talon of Azshara 350.00
View 01/23/08 Euric Frayed Tether of the Drowned 240.00
View 01/23/08 Thymble Leggings of the Vanquished Hero 280.00
View 01/22/08 Yoh Spyglass of the Hidden Fleet 28.00
View 01/22/08 Areyn Pendant of the Perilous 32.00
View 01/22/08 Tinkeron Gloves of the Vanquished Champion 260.00
View 01/21/08 Fireheals Spyglass of the Hidden Fleet 28.00
View 01/21/08 Phoenixbow Ring of Lethality 275.00
View 01/21/08 Euric Pendant of the Perilous 32.00
View 01/21/08 Temujin Gloves of the Vanquished Defender 260.00
View 01/17/08 Kynthios Pattern: Boots of the Long Road 0.00
View 01/17/08 Marteau Bracers of Eradication 35.00
View 01/10/08 Euric Ring of Sundered Souls 300.00
View 01/09/08 Kynthios Nether Vortex 0.00
View 01/09/08 Tinkeron Blackfathom Warbands 32.00
View 01/09/08 Repentant Robe of Hateful Echoes 260.00
View 01/09/08 Areyn Boots of Courage Unending 260.00
View 01/09/08 Gadir Gloves of the Vanquished Hero 260.00
View 01/09/08 Jereld Gloves of the Vanquished Hero 260.00
View 01/09/08 Thymble Nether Vortex 0.00
View 01/09/08 Kynthios Leggings of the Vanquished Defender 280.00
View 01/09/08 Tinkeron Leggings of the Vanquished Champion 280.00
View 01/08/08 Kynthios Nether Vortex 0.00
View 01/03/08 Fireheals The Seal of Danzalar 25.00
View 01/03/08 Amerill Mallet of the Tides 260.00
View 12/20/07 Blackfish The Seal of Danzalar 25.00
View 12/12/07 Vanadis Orca-Hide Boots 35.00
View 12/12/07 Gadir Nether Vortex 0.00
View 12/12/07 Dranalin Nether Vortex 0.00
View 12/12/07 Yoh Leggings of the Vanquished Defender 280.00
View 12/12/07 Vanadis Sextant of Unstable Currents 310.00
View 12/12/07 Thymble Nether Vortex 0.00
View 12/12/07 Dranalin Nether Vortex 0.00
View 12/12/07 Sleyn The Seal of Danzalar 25.00
View 12/05/07 Marteau Warboots of Obliteration 30.00
View 12/05/07 Phoenixbow Nether Vortex 0.00
View 12/05/07 Phoenixbow Leggings of the Vanquished Hero 280.00
View 12/05/07 Temujin Leggings of the Vanquished Defender 280.00
View 12/05/07 Yoh Gloves of the Vanquished Defender 260.00
View 12/05/07 Vanadis Pattern: Belt of Deep Shadow 0.00
View 12/04/07 Vanadis Pattern: Belt of Natural Power 0.00
View 12/04/07 Blackfish Boots of the Shifting Nightmare 220.00
View 12/04/07 Orbital Robe of Hateful Echoes 260.00
View 12/04/07 Yoh Cord of Screaming Terrors 32.00
View 11/29/07 Marteau True-Aim Stalker Bands 32.00
View 11/29/07 Mimiku Gloves of the Vanquished Hero 260.00
View 11/29/07 Vanadis Gloves of the Vanquished Defender 260.00
View 11/28/07 Kynthios Nether Vortex 0.00
View 11/28/07 Kynthios Nether Vortex 0.00
View 11/28/07 Sylent Pendant of the Perilous 32.00
View 11/28/07 Gadir Leggings of the Vanquished Hero 280.00
View 11/28/07 Marteau Band of the Vigilant 25.00
View 11/26/07 Phoenixbow Gloves of the Vanquished Hero 260.00
View 11/26/07 Euric Leggings of the Vanquished Champion 280.00
View 11/26/07 Gadir Tsunami Talisman 310.00
View 11/20/07 Mimiku Nether Vortex 0.00
View 11/20/07 Jereld Nether Vortex 0.00
View 11/15/07 Sylexia Gloves of the Vanquished Defender 260.00
View 11/14/07 Yoh Band of the Vigilant 25.00
View 11/14/07 Vanadis Leggings of the Vanquished Defender 280.00
View 11/13/07 Euric Brighthelm of Justice 27.00
View 11/12/07 Marbaroly Leggings of the Vanquished Hero 280.00
View 11/12/07 Fireheals Wraps of Purification 30.00
View 11/12/07 Ihasdps Bloodsea Brigand's Vest 290.00
View 11/12/07 Jereld Nether Vortex 0.00
View 11/12/07 Dranalin Ranger-General's Chestguard 290.00
View 11/07/07 Sylent Gloves of the Vanquished Champion 260.00
View 11/07/07 Orbital Spyglass of the Hidden Fleet 28.00
View 11/07/07 Cerrelle Nether Vortex 0.00
View 11/07/07 Cerrelle Nether Vortex 0.00
View 11/05/07 Yoh Pattern: Belt of the Long Road 0.00
View 11/05/07 Yoh Nether Vortex 0.00
View 10/30/07 Gadir Ranger-General's Chestguard 290.00
View 10/30/07 Orbital Fathomstone 235.00
View 10/30/07 Vanadis Cord of Screaming Terrors 240.00
View 10/24/07 Sylexia Orca-Hide Boots 260.00
View 10/24/07 Areyn World Breaker 45.00
View 10/24/07 Euric Gloves of the Vanquished Champion 260.00
View 10/24/07 Marbaroly Serpent-Coil Braid 250.00
View 10/24/07 Nefeteri Leggings of the Vanquished Defender 280.00
View 10/24/07 Shiva Leggings of the Vanquished Champion 280.00
View 10/24/07 Tinkeron Nether Vortex 0.00
View 10/23/07 Marbaroly Pattern: Boots of Blasting 0.00
View 10/23/07 Areyn Spyglass of the Hidden Fleet 28.00
View 10/23/07 Nefeteri Mallet of the Tides 260.00
View 10/18/07 Yoh Luminescent Rod of the Naaru 225.00
View 10/18/07 Shiva Band of the Vigilant 25.00
View 10/17/07 Gadir True-Aim Stalker Bands 245.00
View 10/17/07 Nefeteri World Breaker 45.00
View 10/17/07 Temujin Scarab of Displacement 240.00
View 10/17/07 Marteau Gloves of the Vanquished Champion 260.00
View 10/17/07 Marbaroly Gloves of the Vanquished Hero 260.00
View 10/17/07 Ihasdps Pattern: Belt of Natural Power 0.00
View 10/17/07 Sylexia Leggings of the Vanquished Defender 280.00
View 10/17/07 Areyn Leggings of the Vanquished Champion 280.00
View 10/15/07 Nefeteri Girdle of the Invulnerable 250.00
View 10/15/07 Areyn Gloves of the Vanquished Champion 260.00
View 10/15/07 Ihasdps Gloves of the Vanquished Champion 260.00
View 10/15/07 Marbaroly Nether Vortex 0.00
View 10/15/07 Marbaroly Nether Vortex 0.00
View 10/11/07 Sylexia Pendant of the Lost Ages 32.00
View 10/11/07 Fireheals Nether Vortex 0.00
View 10/11/07 Orbital Leggings of the Vanquished Hero 280.00
View 10/11/07 Tinkeron Leggings of the Vanquished Hero 280.00
View 10/11/07 Tinkeron Pattern: Boots of Blasting 0.00
View 10/11/07 Marteau Pendant of the Perilous 32.00
View 10/11/07 Marteau World Breaker 45.00
View 10/10/07 Vanadis Fathomstone 235.00
View 10/10/07 Euric Scarab of Displacement 240.00
View 10/10/07 Ihasdps Pattern: Monsoon Belt 0.00
View 10/10/07 Yoh Velvet Boots of the Guardian 35.00
View 10/10/07 Ihasdps Nether Vortex 0.00
View 10/10/07 Fireheals Nether Vortex 0.00
View 10/08/07 Temujin Girdle of the Invulnerable 250.00
View 10/08/07 Tinkeron Gloves of the Vanquished Hero 260.00
View 10/04/07 Ihasdps Nether Vortex 0.00
View 10/04/07 Temujin Ring of Sundered Souls 300.00
View 10/04/07 Yoh Pendant of the Lost Ages 32.00
View 10/04/07 Ihasdps Leggings of the Vanquished Champion 280.00
View 10/04/07 Sleyn Leggings of the Vanquished Hero 280.00
View 10/03/07 Sylent Boots of Courage Unending 260.00
View 10/03/07 Areyn Tempest-Strider Boots 250.00
View 10/03/07 Sylent Brighthelm of Justice 210.00
View 10/03/07 Repentant Cord of Screaming Terrors 240.00
View 10/01/07 Sylent Band of the Vigilant 25.00
View 10/01/07 Temujin Frayed Tether of the Drowned 240.00
View 09/26/07 Sleyn Nether Vortex 0.00
View 09/26/07 Temujin Mallet of the Tides 260.00
View 09/26/07 Phoenixbow Band of Vile Aggression 25.00
View 09/26/07 Areyn Brighthelm of Justice 210.00
View 09/26/07 Orbital Boots of the Shifting Nightmare 220.00
View 09/26/07 Blackfish Nether Vortex 0.00
View 09/20/07 Nefeteri Plans: Red Havoc Boots 0.00
View 09/20/07 Laylu Ancestral Ring of Conquest 260.00
View 09/13/07 Blackfish Pendant of the Lost Ages 32.00
View 09/13/07 Laylu Razor-Scale Battlecloak 260.00
View 09/13/07 Sleyn Pattern: Belt of Blasting 0.00
View 09/13/07 Orbital Nether Vortex 0.00
View 09/13/07 Orbital Nether Vortex 0.00
View 09/12/07 Orbital The Seal of Danzalar 25.00
View 09/12/07 Sylexia Grove-Bands of Remulos 230.00
View 09/03/07 Temujin Nether Vortex 0.00
View 09/03/07 Shiva Tempest-Strider Boots 250.00
View 08/23/07 Temujin Nether Vortex 0.00
... found 376 item(s)

World of Warcraft EQDKP template "WoWMoonclaw01" (v1.02) created by MA╦VAH (ex-MOONCLAW) & SSIRUL - http://www.wowcr.net/templates
© World of Warcraft and Blizzard Entertainment are trademarks or registered trademarks of Blizzard Entertainment, Inc. in the U.S. and/or other countries. wowcr.net is in no way associated with Blizzard Entertainment.
© 2003 The EQdkp Project Team
Powered by EQdkp 1.3.2